地図

経路データ

SID SEASON NUMBER BASIN SUBBASIN NAME ISO_TIME NATURE LAT LON WMO_WIND WMO_PRES WMO_AGENCY TRACK_TYPE DIST2LAND LANDFALL IFLAG USA_AGENCY USA_ATCF_ID USA_LAT USA_LON USA_RECORD USA_STATUS USA_WIND USA_PRES USA_SSHS USA_R34_NE USA_R34_SE USA_R34_SW USA_R34_NW USA_R50_NE USA_R50_SE USA_R50_SW USA_R50_NW USA_R64_NE USA_R64_SE USA_R64_SW USA_R64_NW USA_POCI USA_ROCI USA_RMW USA_EYE TOKYO_LAT TOKYO_LON TOKYO_GRADE TOKYO_WIND TOKYO_PRES TOKYO_R50_DIR TOKYO_R50_LONG TOKYO_R50_SHORT TOKYO_R30_DIR TOKYO_R30_LONG TOKYO_R30_SHORT TOKYO_LAND CMA_LAT CMA_LON CMA_CAT CMA_WIND CMA_PRES HKO_LAT HKO_LON HKO_CAT HKO_WIND HKO_PRES NEWDELHI_LAT NEWDELHI_LON NEWDELHI_GRADE NEWDELHI_WIND NEWDELHI_PRES NEWDELHI_CI NEWDELHI_DP NEWDELHI_POCI REUNION_LAT REUNION_LON REUNION_TYPE REUNION_WIND REUNION_PRES REUNION_TNUM REUNION_CI REUNION_RMW REUNION_R34_NE REUNION_R34_SE REUNION_R34_SW REUNION_R34_NW REUNION_R50_NE REUNION_R50_SE REUNION_R50_SW REUNION_R50_NW REUNION_R64_NE REUNION_R64_SE REUNION_R64_SW REUNION_R64_NW BOM_LAT BOM_LON BOM_TYPE BOM_WIND BOM_PRES BOM_TNUM BOM_CI BOM_RMW BOM_R34_NE BOM_R34_SE BOM_R34_SW BOM_R34_NW BOM_R50_NE BOM_R50_SE BOM_R50_SW BOM_R50_NW BOM_R64_NE BOM_R64_SE BOM_R64_SW BOM_R64_NW BOM_ROCI BOM_POCI BOM_EYE BOM_POS_METHOD BOM_PRES_METHOD NADI_LAT NADI_LON NADI_CAT NADI_WIND NADI_PRES WELLINGTON_LAT WELLINGTON_LON WELLINGTON_WIND WELLINGTON_PRES DS824_LAT DS824_LON DS824_STAGE DS824_WIND DS824_PRES TD9636_LAT TD9636_LON TD9636_STAGE TD9636_WIND TD9636_PRES TD9635_LAT TD9635_LON TD9635_WIND TD9635_PRES TD9635_ROCI NEUMANN_LAT NEUMANN_LON NEUMANN_CLASS NEUMANN_WIND NEUMANN_PRES MLC_LAT MLC_LON MLC_CLASS MLC_WIND MLC_PRES USA_GUST BOM_GUST BOM_GUST_PER REUNION_GUST REUNION_GUST_PER USA_SEAHGT USA_SEARAD_NE USA_SEARAD_SE USA_SEARAD_SW USA_SEARAD_NW STORM_SPEED STORM_DIR
1960057S16160 1960 9 SP MM NOT_NAMED 1960-02-25 12:00:00 TS -15.5000 160.200 main 554 554 O________OO___ jtwc_sh SH141960 -15.5000 160.200 -1 -15.5000 160.200 TC -15.5000 160.200 4 15 254
1960057S16160 1960 9 SP EA NOT_NAMED 1960-02-25 15:00:00 TS -15.7097 159.439 main 607 607 P________PP___ SH141960 -15.7158 159.400 -1 -15.7158 159.400 TC -15.6975 159.516 4 14 254
1960057S16160 1960 9 SP EA NOT_NAMED 1960-02-25 18:00:00 TS -15.8917 158.755 main 656 656 O________OP___ jtwc_sh SH141960 -15.9000 158.700 -1 -15.9000 158.700 TC -15.8751 158.864 4 12 255
1960057S16160 1960 9 SP EA NOT_NAMED 1960-02-25 21:00:00 TS -16.0248 158.210 main 700 700 P________PP___ SH141960 -16.0297 158.175 -1 -16.0297 158.175 TC -16.0150 158.281 4 9 257
1960057S16160 1960 9 SP EA NOT_NAMED 1960-02-26 00:00:00 TS -16.1000 157.800 main 734 734 O________OO___ jtwc_sh SH141960 -16.1000 157.800 -1 -16.1000 157.800 TC -16.1000 157.800 4 7 262
1960057S16160 1960 9 SP EA NOT_NAMED 1960-02-26 03:00:00 TS -16.1216 157.495 main 748 748 P________PP___ SH141960 -16.1223 157.520 -1 -16.1223 157.520 TC -16.1203 157.445 4 5 270
1960057S16160 1960 9 SP EA NOT_NAMED 1960-02-26 06:00:00 TS -16.0979 157.262 main 755 755 O________OP___ jtwc_sh SH141960 -16.1000 157.300 -1 -16.1000 157.300 TC -16.0938 157.187 4 5 279
1960057S16160 1960 9 SP EA NOT_NAMED 1960-02-26 09:00:00 TS -16.0485 157.023 main 757 757 P________PP___ SH141960 -16.0500 157.042 -1 -16.0500 157.042 TC -16.0455 156.986 4 5 282
1960057S16160 1960 9 SP EA NOT_NAMED 1960-02-26 12:00:00 TS -16.0000 156.800 main 766 766 O________OO___ jtwc_sh SH141960 -16.0000 156.800 -1 -16.0000 156.800 TC -16.0000 156.800 4 4 278
1960057S16160 1960 9 SP EA NOT_NAMED 1960-02-26 15:00:00 TS -15.9898 156.589 main 776 776 P________PP___ SH141960 -15.9924 156.600 -1 -15.9924 156.600 TC -15.9846 156.568 4 4 271
1960057S16160 1960 9 SP EA NOT_NAMED 1960-02-26 18:00:00 TS -15.9925 156.381 main 785 785 O________OP___ jtwc_sh SH141960 -16.0000 156.400 -1 -16.0000 156.400 TC -15.9774 156.342 4 4 270
1960057S16160 1960 9 SP EA NOT_NAMED 1960-02-26 21:00:00 TS -15.9888 156.140 main 801 801 P________PP___ SH141960 -15.9925 156.150 -1 -15.9925 156.150 TC -15.9815 156.121 4 5 269
1960057S16160 1960 9 SP EA NOT_NAMED 1960-02-27 00:00:00 TS -16.0000 155.900 main 812 811 O________OO___ jtwc_sh SH141960 -16.0000 155.900 -1 -16.0000 155.900 TC -16.0000 155.900 4 4 264
1960057S16160 1960 9 SP EA NOT_NAMED 1960-02-27 03:00:00 TS -16.0321 155.684 main 811 804 P________PP___ SH141960 -16.0424 155.700 -1 -16.0424 155.700 TC -16.0113 155.651 4 4 259
1960057S16160 1960 9 SP EA NOT_NAMED 1960-02-27 06:00:00 TS -16.0800 155.468 main 805 785 O________OP___ jtwc_sh SH141960 -16.1000 155.500 -1 -16.1000 155.500 TC -16.0401 155.405 4 5 258
1960057S16160 1960 9 SP EA NOT_NAMED 1960-02-27 09:00:00 TS -16.1230 155.222 main 785 778 P________PP___ SH141960 -16.1350 155.242 -1 -16.1350 155.242 TC -16.0988 155.182 4 5 255
1960057S16160 1960 9 SP EA NOT_NAMED 1960-02-27 12:00:00 TS -16.2000 155.000 main 780 774 O________OO___ jtwc_sh SH141960 -16.2000 155.000 -1 -16.2000 155.000 TC -16.2000 155.000 4 4 243
1960057S16160 1960 9 SP EA NOT_NAMED 1960-02-27 15:00:00 TS -16.3214 154.825 main 775 753 P________PP___ SH141960 -16.3200 154.813 -1 -16.3200 154.813 TC -16.3243 154.850 4 4 223
1960057S16160 1960 9 SP EA NOT_NAMED 1960-02-27 18:00:00 TS -16.4983 154.715 main 753 741 O________OP___ jtwc_sh SH141960 -16.5000 154.700 -1 -16.5000 154.700 TC -16.4948 154.745 4 4 201
1960057S16160 1960 9 SP EA NOT_NAMED 1960-02-27 21:00:00 TS -16.7143 154.673 main 741 728 P________PP___ SH141960 -16.7125 154.663 -1 -16.7125 154.663 TC -16.7180 154.694 4 5 0
1960057S16160 1960 9 SP EA NOT_NAMED 1960-02-27 23:00:00 TS -16.8808 154.732 993 bom main 728 728 P_____O__PP___ SH141960 -16.8943 154.681 -1 -16.7000 155.300 993 -16.8943 154.681 TC -16.8991 154.691 4 6 150
1960057S16160 1960 9 SP EA NOT_NAMED 1960-02-28 00:00:00 TS -16.9603 154.824 main 731 719 O_____P__OO___ jtwc_sh SH141960 -17.0000 154.700 -1 -16.8023 155.330 992 -17.0000 154.700 TC -17.0000 154.700 4 7 152
1960057S16160 1960 9 SP EA NOT_NAMED 1960-02-28 03:00:00 TS -17.2935 154.960 main 726 706 P_____P__PP___ SH141960 -17.3775 154.777 -1 -17.1117 155.415 991 -17.3775 154.777 TC -17.3548 154.775 4 8 159
1960057S16160 1960 9 SP EA NOT_NAMED 1960-02-28 06:00:00 TS -17.6547 155.109 main 698 680 O_____P__OP___ jtwc_sh SH141960 -17.8000 154.900 -1 -17.4302 155.480 989 -17.8000 154.900 TC -17.7626 154.904 4 8 160
1960057S16160 1960 9 SP EA NOT_NAMED 1960-02-28 09:00:00 TS -18.0270 155.231 main 680 663 P_____P__PP___ SH141960 -18.2150 155.050 -1 -17.7647 155.509 988 -18.2150 155.050 TC -18.1892 155.056 4 8 165
1960057S16160 1960 9 SP EA NOT_NAMED 1960-02-28 11:00:00 TS -18.2808 155.293 987 bom main 663 655 P_____O__PP___ SH141960 -18.4781 155.153 -1 -18.0000 155.500 987 -18.4781 155.153 TC -18.4669 155.155 4 8 168
1960057S16160 1960 9 SP EA NOT_NAMED 1960-02-28 12:00:00 TS -18.4044 155.317 main 655 639 O_____P__OO___ jtwc_sh SH141960 -18.6000 155.200 -1 -18.1220 155.486 986 -18.6000 155.200 TC -18.6000 155.200 4 7 172
1960057S16160 1960 9 SP EA NOT_NAMED 1960-02-28 15:00:00 TS -18.7445 155.366 main 640 610 P_____P__PP___ SH141960 -18.9075 155.315 -1 -18.5005 155.417 985 -18.9075 155.315 TC -18.9343 155.314 4 7 175
1960057S16160 1960 9 SP EA NOT_NAMED 1960-02-28 18:00:00 TS -19.0786 155.394 main 610 590 O_____P__OP___ jtwc_sh SH141960 -19.2000 155.400 -1 -18.8856 155.339 984 -19.2000 155.400 TC -19.2500 155.410 4 7 175
1960057S16160 1960 9 SP EA NOT_NAMED 1960-02-28 21:00:00 TS -19.4272 155.420 main 590 570 P_____P__PP___ SH141960 -19.5350 155.472 -1 -19.2618 155.293 983 -19.5350 155.472 TC -19.5656 155.476 4 7 175
1960057S16160 1960 9 SP EA NOT_NAMED 1960-02-28 23:00:00 TS -19.6636 155.436 983 bom main 570 564 P_____O__PP___ SH141960 -19.7750 155.497 -1 -19.5000 155.300 983 -19.7750 155.497 TC -19.7853 155.497 4 7 178
1960057S16160 1960 9 SP EA NOT_NAMED 1960-02-29 00:00:00 TS -19.7830 155.446 main 564 555 O_____P__OO___ jtwc_sh SH141960 -19.9000 155.500 -1 -19.6150 155.330 981 -19.9000 155.500 TC -19.9000 155.500 4 7 176
1960057S16160 1960 9 SP EA NOT_NAMED 1960-02-29 03:00:00 TS -20.1438 155.478 main 555 530 P_____P__PP___ SH141960 -20.2925 155.473 -1 -19.9456 155.472 976 -20.2925 155.473 TC -20.2672 155.474 4 7 176
1960057S16160 1960 9 SP EA NOT_NAMED 1960-02-29 06:00:00 TS -20.5073 155.503 main 530 500 O_____P__OP___ jtwc_sh SH141960 -20.7000 155.400 -1 -20.2519 155.664 971 -20.7000 155.400 TC -20.6626 155.406 4 7 173
1960057S16160 1960 9 SP EA NOT_NAMED 1960-02-29 09:00:00 TS -20.8245 155.561 main 505 485 P_____P__PP___ SH141960 -21.1049 155.286 -1 -20.5308 155.871 967 -21.1025 155.305 TC -21.0767 155.310 4 6 164
1960057S16160 1960 9 SP EA NOT_NAMED 1960-02-29 11:00:00 TS -20.9859 155.656 964 bom main 490 490 P_____O__PP___ SH141960 -21.3704 155.220 -1 -20.7000 156.000 964 4 -21.3678 155.236 TC -21.3584 155.237 4 5 125
1960057S16160 1960 9 SP EA NOT_NAMED 1960-02-29 12:00:00 TS -20.9801 155.799 main 495 495 O_____P__OO___ jtwc_sh SH141960 -21.5000 155.200 -1 -20.7702 156.049 964 -21.5000 155.200 TC -21.5000 155.200 4 7 94
1960057S16160 1960 9 SP EA NOT_NAMED 1960-02-29 15:00:00 TS -21.0192 156.160 main 518 506 P_____P_______ SH141960 -21.8781 155.226 -1 -20.9547 156.183 964 TC 4 5 120
1960057S16160 1960 9 SP EA NOT_NAMED 1960-02-29 18:00:00 TS -21.2466 156.288 main 506 486 P_____P_______ SH141960 -22.2375 155.337 -1 -21.1293 156.306 964 4 5 154
1960057S16160 1960 9 SP EA NOT_NAMED 1960-02-29 21:00:00 TS -21.4890 156.410 main 486 476 P_____P_______ SH141960 -22.5781 155.504 -1 -21.3314 156.422 964 4 6 156
1960057S16160 1960 9 SP EA NOT_NAMED 1960-02-29 23:00:00 TS -21.6696 156.490 964 bom main 476 437 P_____O_______ SH141960 -22.7948 155.633 -1 -21.5000 156.500 964 4 12 189
1960057S16160 1960 9 SP EA NOT_NAMED 1960-03-01 00:00:00 TS -22.0783 156.304 main 429 391 O_____P_______ jtwc_sh SH151960 -22.9000 155.700 -1 -21.6028 156.542 964 14 189
1960057S16160 1960 9 SP EA NOT_NAMED 1960-03-01 03:00:00 TS -22.5736 156.332 main 391 373 P_____P_______ SH151960 -23.2130 155.893 -1 -21.9538 156.667 964 9 174
1960057S16160 1960 9 SP EA NOT_NAMED 1960-03-01 06:00:00 TS -23.0119 156.421 main 373 360 O_____P_______ jtwc_sh SH151960 -23.5000 156.100 -1 -22.3565 156.792 964 9 167
1960057S16160 1960 9 SP EA NOT_NAMED 1960-03-01 09:00:00 TS -23.4028 156.546 main 360 359 P_____P_______ SH151960 -23.7650 156.308 -1 -22.7952 156.917 964 8 160
1960057S16160 1960 9 SP EA NOT_NAMED 1960-03-01 11:00:00 TS -23.6095 156.656 964 bom main 369 364 P_____O_______ SH151960 -23.9250 156.439 -1 -23.1000 157.000 964 7 154
1960057S16160 1960 9 SP EA NOT_NAMED 1960-03-01 12:00:00 TS -23.7106 156.708 main 364 359 O_____P_______ jtwc_sh SH151960 -24.0000 156.500 -1 -23.2532 157.042 964 7 156
1960057S16160 1960 9 SP EA NOT_NAMED 1960-03-01 15:00:00 TS -24.0138 156.852 main 371 364 P_____P_______ SH151960 -24.2074 156.650 -1 -23.7313 157.167 964 7 156
1960057S16160 1960 9 SP EA NOT_NAMED 1960-03-01 18:00:00 TS -24.3145 156.994 main 371 369 O_____P_______ jtwc_sh SH151960 -24.4000 156.800 -1 -24.2203 157.292 964 7 155
1960057S16160 1960 9 SP EA NOT_NAMED 1960-03-01 21:00:00 TS -24.6117 157.153 main 385 383 P_____P_______ SH151960 -24.5775 156.985 -1 -24.6983 157.417 964 7 154
1960057S16160 1960 9 SP EA NOT_NAMED 1960-03-01 23:00:00 TS -24.8190 157.268 964 bom main 393 393 P_____O_______ SH151960 -24.7162 157.125 -1 -25.0000 157.500 964 7 154
1960057S16160 1960 9 SP EA NOT_NAMED 1960-03-02 00:00:00 TS -24.9289 157.329 main 393 393 O_____P_______ jtwc_sh SH151960 -24.8000 157.200 -1 -25.1446 157.547 964 8 153
1960057S16160 1960 9 SP EA NOT_NAMED 1960-03-02 03:00:00 TS -25.2836 157.532 main 413 413 P_____P_______ SH151960 -25.1050 157.435 -1 -25.5588 157.688 966 8 153
1960057S16160 1960 9 SP EA NOT_NAMED 1960-03-02 06:00:00 TS -25.6764 157.751 main 448 448 O_____P_______ jtwc_sh SH151960 -25.5000 157.700 -1 -25.9413 157.823 968 9 154
1960057S16160 1960 9 SP EA NOT_NAMED 1960-03-02 09:00:00 TS -26.0952 157.979 main 477 477 P_____P_______ SH151960 -25.9626 158.007 -1 -26.2891 157.939 970 9 155
1960057S16160 1960 9 SP EA NOT_NAMED 1960-03-02 11:00:00 TS -26.3895 158.121 972 bom main 487 487 P_____O_______ SH151960 -26.3141 158.209 -1 -26.5000 158.000 972 10 158
1960057S16160 1960 9 SP EA NOT_NAMED 1960-03-02 12:00:00 TS -26.5400 158.185 main 491 481 O_____P_______ jtwc_sh SH151960 -26.5000 158.300 -1 -26.6001 158.026 973 10 162
1960057S16160 1960 9 SP EA NOT_NAMED 1960-03-02 15:00:00 TS -27.0062 158.347 main 481 479 P_____P_______ SH151960 -27.0849 158.523 -1 -26.8727 158.082 976 10 165
1960057S16160 1960 9 SP EA NOT_NAMED 1960-03-02 18:00:00 TS -27.4797 158.473 main 487 482 O_____P_______ jtwc_sh SH151960 -27.7000 158.700 -1 -27.1163 158.109 979 10 168
1960057S16160 1960 9 SP EA NOT_NAMED 1960-03-02 21:00:00 TS -27.9453 158.582 main 491 489 P_____P_______ SH151960 -28.3225 158.887 -1 -27.3464 158.111 982 9 170
1960057S16160 1960 9 SP EA NOT_NAMED 1960-03-02 23:00:00 TS -28.2384 158.627 985 bom main 489 488 P_____O_______ SH151960 -28.7171 158.975 -1 -27.5000 158.100 985 9 173
1960057S16160 1960 9 SP EA NOT_NAMED 1960-03-03 00:00:00 TS -28.3786 158.637 main 488 486 O_____P_______ jtwc_sh SH151960 -28.9000 159.000 -1 -27.5932 158.086 985 8 183
1960057S16160 1960 9 SP EA NOT_NAMED 1960-03-03 03:00:00 TS -28.7803 158.618 main 486 485 P_____P_______ SH151960 -29.4175 158.988 -1 -27.8768 158.025 986 7 186
1960057S16160 1960 9 SP EA NOT_NAMED 1960-03-03 06:00:00 TS -29.1068 158.548 main 476 476 O_____P_______ jtwc_sh SH151960 -29.8000 158.900 -1 -28.1471 157.956 987 6 189
1960057S16160 1960 9 SP EA NOT_NAMED 1960-03-03 09:00:00 TS -29.4013 158.504 main 478 478 P_____P_______ SH151960 -30.0399 158.830 -1 -28.3790 157.907 989 5 189
1960057S16160 1960 9 SP EA NOT_NAMED 1960-03-03 11:00:00 TS -29.5542 158.471 990 bom main 481 481 P_____O_______ SH151960 -30.0999 158.753 -1 -28.5000 157.900 990 5 191
1960057S16160 1960 9 SP EA NOT_NAMED 1960-03-03 12:00:00 TS -29.6407 158.466 main 481 463 O_____P_______ jtwc_sh SH151960 -30.1000 158.700 -1 -28.5479 157.907 990 3 224
1960057S16160 1960 9 SP EA NOT_NAMED 1960-03-03 15:00:00 TS -29.6846 158.328 main 463 452 P_____P_______ SH151960 -30.0101 158.457 -1 -28.6458 157.966 990 3 278
1960057S16160 1960 9 SP EA NOT_NAMED 1960-03-03 18:00:00 TS -29.6054 158.160 main 452 431 O_____P_______ jtwc_sh SH151960 -29.8000 158.200 -1 -28.6903 158.071 990 4 306
1960057S16160 1960 9 SP EA NOT_NAMED 1960-03-03 21:00:00 TS -29.4690 157.992 main 431 420 P_____P_______ SH151960 -29.5799 157.967 -1 -28.7013 158.204 990 4 321
1960057S16160 1960 9 SP EA NOT_NAMED 1960-03-03 23:00:00 TS -29.3506 157.923 990 bom main 420 419 P_____O_______ SH151960 -29.3999 157.893 -1 -28.7000 158.300 990 4 336
1960057S16160 1960 9 SP EA NOT_NAMED 1960-03-04 00:00:00 TS -29.3000 157.900 main 419 418 O_____________ jtwc_sh SH151960 -29.3000 157.900 -1 6 22
1960057S16160 1960 9 SP EA NOT_NAMED 1960-03-04 03:00:00 TS -28.9530 158.105 main 437 437 P_____________ SH151960 -28.9723 158.095 -1 9 36
1960057S16160 1960 9 SP EA NOT_NAMED 1960-03-04 06:00:00 TS -28.5634 158.508 main 477 477 O_____________ jtwc_sh SH151960 -28.6000 158.500 -1 11 45
1960057S16160 1960 9 SP EA NOT_NAMED 1960-03-04 09:00:00 TS -28.1553 159.020 main 528 528 P_____________ SH151960 -28.1852 159.013 -1 12 52
1960057S16160 1960 9 SP EA NOT_NAMED 1960-03-04 12:00:00 TS -27.8000 159.600 main 590 590 O_____________ jtwc_sh SH151960 -27.8000 159.600 -1 12 56
1960057S16160 1960 9 SP MM NOT_NAMED 1960-03-04 15:00:00 TS -27.4826 160.156 main 652 652 P_____________ SH151960 -27.4522 160.143 -1 11 65
1960057S16160 1960 9 SP MM NOT_NAMED 1960-03-04 18:00:00 TS -27.3374 160.733 main 705 705 O_____________ jtwc_sh SH151960 -27.3000 160.700 -1 11 86
1960057S16160 1960 9 SP MM NOT_NAMED 1960-03-04 21:00:00 TS -27.4100 161.345 main 761 751 P_____________ SH151960 -27.3777 161.323 -1 11 114
1960057S16160 1960 9 SP MM NOT_NAMED 1960-03-05 00:00:00 TS -27.8000 161.900 main 763 763 O_____________ jtwc_sh SH151960 -27.8000 161.900 -1 15 142
1960057S16160 1960 9 SP MM NOT_NAMED 1960-03-05 03:00:00 TS -28.5534 162.370 main 810 810 P_____________ SH151960 -28.5949 162.367 -1 19 157
1960057S16160 1960 9 SP MM NOT_NAMED 1960-03-05 06:00:00 TS -29.5312 162.719 main 884 884 O_____________ jtwc_sh SH151960 -29.6000 162.700 -1 20 165
1960057S16160 1960 9 SP MM NOT_NAMED 1960-03-05 09:00:00 TS -30.5148 162.979 main 923 923 P_____________ SH151960 -30.5496 162.976 -1 20 173
1960057S16160 1960 9 SP MM NOT_NAMED 1960-03-05 12:00:00 TS -31.5000 163.000 main 939 916 O_____________ jtwc_sh SH151960 -31.5000 163.000 -1 20 188
1960057S16160 1960 9 SP MM NOT_NAMED 1960-03-05 15:00:00 TS -32.4781 162.653 main 918 882 P_____________ SH151960 -32.4226 162.657 -1 21 202
1960057S16160 1960 9 SP MM NOT_NAMED 1960-03-05 18:00:00 TS -33.4080 162.094 main 882 852 O_____________ jtwc_sh SH151960 -33.3000 162.100 -1 21 208
1960057S16160 1960 9 SP MM NOT_NAMED 1960-03-05 21:00:00 TS -34.3308 161.487 main 855 832 P_____________ SH151960 -34.2731 161.492 -1 17 211
1960057S16160 1960 9 SP MM NOT_NAMED 1960-03-06 00:00:00 TS -34.9000 161.000 main 832 812 O_____________ jtwc_sh SH151960 -34.9000 161.000 -1 7 228
1960057S16160 1960 9 SP MM NOT_NAMED 1960-03-06 03:00:00 TS -34.8223 160.828 main 812 801 P_____________ SH151960 -34.8745 160.835 -1 6 350
1960057S16160 1960 9 SP MM NOT_NAMED 1960-03-06 06:00:00 TS -34.3288 160.869 main 803 787 O_____________ jtwc_sh SH151960 -34.4000 160.900 -1 12 7
1960057S16160 1960 9 SP MM NOT_NAMED 1960-03-06 09:00:00 TS -33.6353 160.993 main 791 787 P_____________ SH151960 -33.6846 161.003 -1 14 15
1960057S16160 1960 9 SP MM NOT_NAMED 1960-03-06 12:00:00 TS -33.0000 161.300 main 799 797 O_____________ jtwc_sh SH151960 -33.0000 161.300 -1 12 38
1960057S16160 1960 9 SP MM NOT_NAMED 1960-03-06 15:00:00 TS -32.7240 161.835 main 838 838 P_____________ SH151960 -32.7078 161.833 -1 11 73
1960057S16160 1960 9 SP MM NOT_NAMED 1960-03-06 18:00:00 TS -32.6927 162.505 main 903 888 O_____________ jtwc_sh SH151960 -32.7000 162.500 -1 11 93
1960057S16160 1960 9 SP MM NOT_NAMED 1960-03-06 21:00:00 TS -32.7936 163.200 main 888 823 P_____________ SH151960 -32.7855 163.195 -1 12 115
1960057S16160 1960 9 SP MM NOT_NAMED 1960-03-07 00:00:00 TS -33.2000 163.800 main 823 772 O_____________ jtwc_sh SH151960 -33.2000 163.800 -1 15 146
1960057S16160 1960 9 SP MM NOT_NAMED 1960-03-07 03:00:00 TS -34.0078 164.189 main 772 749 P_____________ SH151960 -34.0446 164.182 -1 19 164
1960057S16160 1960 9 SP MM NOT_NAMED 1960-03-07 06:00:00 TS -35.0368 164.427 main 749 738 O_____________ jtwc_sh SH151960 -35.1000 164.400 -1 21 171
1960057S16160 1960 9 SP MM NOT_NAMED 1960-03-07 09:00:00 TS -36.0470 164.590 main 743 743 P_____________ SH151960 -36.0798 164.575 -1 20 176
1960057S16160 1960 9 SP MM NOT_NAMED 1960-03-07 12:00:00 TS -37.0000 164.600 main 771 736 O_____________ jtwc_sh SH151960 -37.0000 164.600 -1 18 183
1960057S16160 1960 9 SP MM NOT_NAMED 1960-03-07 15:00:00 TS -37.8185 164.464 main 736 710 P_____________ SH151960 -37.8022 164.490 -1 16 193
1960057S16160 1960 9 SP MM NOT_NAMED 1960-03-07 18:00:00 TS -38.5174 164.163 main 710 669 O_____________ jtwc_sh SH151960 -38.5000 164.200 -1 14 204
1960057S16160 1960 9 SP MM NOT_NAMED 1960-03-07 21:00:00 TS -39.1311 163.721 main 674 645 P_____________ SH151960 -39.1207 163.747 -1 14 212
1960057S16160 1960 9 SP MM NOT_NAMED 1960-03-08 00:00:00 TS -39.7000 163.200 main 645 O_____________ jtwc_sh SH151960 -39.7000 163.200 -1 14 215

デジタル台風データ・検索

IBTrACS Databaseについて

本データベースは、米国NOAAが公開する1842年以降の世界の熱帯低気圧のベストトラックデータアーカイブInternational Best Track Archive for Climate Stewardship (IBTrACS)を、ウェブで閲覧しやすい形式に変換したものです。

最終更新日:2021-12-06